Time;durP1;ratioP1;P1;durP2;ratioP2;P2;SDS_P1;SDS_P2;PMS_P1;PMS_P2;Temp;Humidity;BMP_temperature;BMP_pressure;BME280_temperature;BME280_humidity;BME280_pressure;Samples;Min_cycle;Max_cycle;Signal;HPM_P1;HPM_P2
2022/08/08 00:01:34;;;;;;;1.90;1.10;;;;;;;22.67;32.04;100942.19;4162323;28;20037;-63
2022/08/08 00:04:06;;;;;;;1.80;1.10;;;;;;;22.65;32.13;100941.38;4160562;28;20034;-62
2022/08/08 00:06:29;;;;;;;5.05;1.23;;;;;;;22.62;32.11;100938.81;4154167;28;20042;-62
2022/08/08 00:08:46;;;;;;;2.33;1.10;;;;;;;22.60;31.85;100932.66;4157283;28;20037;-63
2022/08/08 00:10:56;;;;;;;1.70;1.13;;;;;;;22.61;31.78;100936.19;4163254;28;20041;-63
2022/08/08 00:13:09;;;;;;;4.93;1.50;;;;;;;22.59;31.69;100938.88;4162810;28;20053;-63
2022/08/08 00:15:27;;;;;;;3.47;1.33;;;;;;;22.52;32.18;100939.97;4155987;28;20053;-63
2022/08/08 00:17:56;;;;;;;2.08;1.30;;;;;;;22.48;32.58;100933.03;4161392;28;20057;-63
2022/08/08 00:20:08;;;;;;;3.67;1.60;;;;;;;22.46;32.81;100937.50;4161896;28;20037;-63
2022/08/08 00:22:22;;;;;;;3.22;1.05;;;;;;;22.46;32.99;100942.81;4153875;28;20537;-62
2022/08/08 00:24:42;;;;;;;2.17;1.02;;;;;;;22.47;33.00;100945.41;4162422;28;20046;-63
2022/08/08 00:26:52;;;;;;;1.85;0.80;;;;;;;22.46;33.05;100938.34;4194905;28;20421;-63
2022/08/08 00:29:08;;;;;;;4.00;0.98;;;;;;;22.38;33.00;100950.94;4161433;28;20068;-63
2022/08/08 00:31:17;;;;;;;2.50;1.10;;;;;;;22.24;33.14;100946.00;4161304;28;20045;-63
2022/08/08 00:33:47;;;;;;;1.90;1.08;;;;;;;22.16;33.43;100952.41;4161638;28;20042;-62
2022/08/08 00:36:23;;;;;;;2.10;1.00;;;;;;;21.98;33.67;100951.97;4144971;28;20046;-62
2022/08/08 00:38:36;;;;;;;3.78;1.00;;;;;;;21.95;33.63;100949.41;4154868;28;20033;-62
2022/08/08 00:41:29;;;;;;;3.47;1.08;;;;;;;21.82;33.79;100959.41;4161095;28;20045;-62
2022/08/08 00:44:18;;;;;;;2.25;1.02;;;;;;;21.89;33.67;100955.72;4161691;28;20041;-62
2022/08/08 00:46:51;;;;;;;2.08;0.90;;;;;;;21.88;33.57;100955.75;4161385;28;20041;-63
2022/08/08 00:49:22;;;;;;;4.13;0.93;;;;;;;21.75;33.65;100950.75;4160285;28;20124;-62
2022/08/08 00:52:11;;;;;;;2.65;1.08;;;;;;;21.76;33.72;100951.63;4156556;28;20041;-63
2022/08/08 00:54:50;;;;;;;1.85;0.95;;;;;;;21.65;34.03;100948.38;4145040;28;20057;-62
2022/08/08 00:57:28;;;;;;;1.67;0.80;;;;;;;21.67;33.98;100952.72;4157672;28;20045;-63
2022/08/08 01:00:06;;;;;;;5.07;1.48;;;;;;;21.59;34.05;100954.69;4153948;28;20049;-63
2022/08/08 01:02:56;;;;;;;3.45;1.20;;;;;;;21.53;34.14;100942.47;4160321;28;20068;-62
2022/08/08 01:05:52;;;;;;;3.75;1.13;;;;;;;21.42;34.59;100944.44;4161503;28;20085;-62
2022/08/08 01:08:48;;;;;;;2.80;1.05;;;;;;;21.34;34.61;100949.06;4133492;28;20053;-62
2022/08/08 01:11:34;;;;;;;1.00;0.60;;;;;;;21.26;34.85;100952.75;4161458;28;20061;-62
2022/08/08 01:14:08;;;;;;;1.48;0.85;;;;;;;21.31;34.64;100952.63;4157030;28;20038;-62
2022/08/08 01:17:08;;;;;;;2.05;1.05;;;;;;;21.33;34.80;100952.59;4141542;28;20065;-63
2022/08/08 01:19:51;;;;;;;0.98;0.77;;;;;;;21.22;35.05;100958.13;4161189;28;20037;-63
2022/08/08 01:22:28;;;;;;;4.63;1.05;;;;;;;21.15;35.01;100959.19;4144191;28;20148;-63
2022/08/08 01:24:58;;;;;;;4.70;0.90;;;;;;;21.16;35.13;100951.22;4160629;28;20043;-62
2022/08/08 01:27:43;;;;;;;3.03;1.52;;;;;;;21.09;35.46;100960.19;4164513;28;20127;-63
2022/08/08 01:30:26;;;;;;;1.17;0.70;;;;;;;21.06;35.21;100955.81;4158935;28;20475;-62
2022/08/08 01:33:13;;;;;;;2.70;1.00;;;;;;;21.08;35.23;100948.75;4128472;28;20523;-62
2022/08/08 01:36:14;;;;;;;1.10;0.82;;;;;;;21.01;35.35;100940.94;4181467;28;20041;-62
2022/08/08 01:38:57;;;;;;;3.77;0.90;;;;;;;20.99;35.46;100943.63;4154428;28;20523;-63
2022/08/08 01:41:09;;;;;;;3.63;0.95;;;;;;;20.99;35.38;100938.34;4146940;28;20574;-63
2022/08/08 01:43:30;;;;;;;2.67;0.80;;;;;;;20.91;35.66;100945.59;4154749;28;20053;-63
2022/08/08 01:45:58;;;;;;;1.50;0.68;;;;;;;20.94;35.47;100948.16;4164156;28;20085;-63
2022/08/08 01:48:14;;;;;;;2.63;1.10;;;;;;;21.03;35.39;100949.75;4162947;28;20041;-63
2022/08/08 01:50:53;;;;;;;0.85;0.85;;;;;;;20.98;35.68;100944.53;4161635;28;20116;-63
2022/08/08 01:53:07;;;;;;;3.45;1.00;;;;;;;20.96;35.71;100948.13;4163887;28;20448;-63
2022/08/08 01:55:41;;;;;;;1.67;1.13;;;;;;;20.86;35.70;100948.28;4162290;28;20041;-63
2022/08/08 01:58:28;;;;;;;2.60;1.00;;;;;;;20.85;35.68;100957.16;4162582;28;20084;-63
2022/08/08 02:00:48;;;;;;;;;;;;;;;20.65;36.30;100967.22;4163566;28;20038;-63
2022/08/08 02:03:29;;;;;;;3.00;1.08;;;;;;;20.72;35.90;100960.91;4162171;28;20012;-63
2022/08/08 02:06:02;;;;;;;5.13;1.40;;;;;;;20.69;35.91;100958.34;4178064;28;20525;-62
2022/08/08 02:08:23;;;;;;;0.70;0.70;;;;;;;20.69;36.31;100960.97;4196863;28;20044;-63
2022/08/08 02:10:52;;;;;;;1.27;0.90;;;;;;;20.71;36.73;100965.34;4150330;28;20045;-63
2022/08/08 02:13:00;;;;;;;4.95;1.02;;;;;;;20.87;36.07;100965.91;4156967;28;20128;-63
2022/08/08 02:15:09;;;;;;;2.17;0.95;;;;;;;20.88;35.69;100961.47;4162443;28;20045;-63
2022/08/08 02:17:25;;;;;;;2.17;1.00;;;;;;;20.83;35.76;100963.34;4175156;28;20045;-63
2022/08/08 02:19:47;;;;;;;2.60;0.90;;;;;;;20.75;35.98;100960.88;4162927;28;20431;-62
2022/08/08 02:22:33;;;;;;;3.75;1.02;;;;;;;20.81;36.16;100965.16;4163321;28;20034;-63
2022/08/08 02:25:07;;;;;;;1.75;0.93;;;;;;;20.86;35.65;100968.59;4161827;28;20052;-62
2022/08/08 02:27:18;;;;;;;4.10;1.10;;;;;;;20.73;36.22;100962.66;4146486;28;20048;-62
2022/08/08 02:29:34;;;;;;;3.50;1.00;;;;;;;20.61;36.19;100962.88;4162464;28;20131;-63
2022/08/08 02:32:15;;;;;;;3.47;1.40;;;;;;;20.69;36.14;100958.34;4193790;28;20033;-63
2022/08/08 02:34:56;;;;;;;3.83;0.88;;;;;;;20.53;36.37;100966.53;4176660;28;20033;-62
2022/08/08 02:37:33;;;;;;;0.80;0.70;;;;;;;20.43;36.66;100974.66;4108968;28;20591;-63
2022/08/08 02:40:06;;;;;;;3.10;1.17;;;;;;;20.39;36.91;100974.72;4179845;28;20132;-62
2022/08/08 02:43:04;;;;;;;2.60;1.10;;;;;;;20.39;36.71;100973.84;4180241;28;20041;-63
2022/08/08 02:46:19;;;;;;;4.88;1.55;;;;;;;20.38;36.65;100972.09;4158732;28;20041;-63
2022/08/08 02:48:55;;;;;;;1.92;0.95;;;;;;;20.30;37.13;100979.31;4163235;28;20041;-63
2022/08/08 02:51:47;;;;;;;2.63;1.00;;;;;;;20.26;37.04;100973.19;4156436;28;20037;-62
2022/08/08 02:54:29;;;;;;;5.32;0.80;;;;;;;20.25;37.44;100973.22;4145924;28;20053;-62
2022/08/08 02:57:01;;;;;;;5.82;1.30;;;;;;;20.34;37.17;100981.88;4145916;28;20547;-62
2022/08/08 02:59:57;;;;;;;4.70;1.30;;;;;;;20.33;36.87;100979.25;4169083;28;20056;-62
2022/08/08 03:02:52;;;;;;;2.05;0.70;;;;;;;20.19;37.16;100975.09;4162780;28;20044;-62
2022/08/08 03:05:43;;;;;;;4.00;0.90;;;;;;;20.22;37.29;100982.97;4163530;28;20419;-63
2022/08/08 03:08:10;;;;;;;;;;;;;;;20.08;37.92;100973.50;4163456;28;20063;-62
2022/08/08 03:10:46;;;;;;;2.08;0.85;;;;;;;20.13;37.47;100976.94;4162883;28;19928;-63
2022/08/08 03:13:24;;;;;;;1.65;0.80;;;;;;;20.18;37.61;100975.09;4158493;28;20069;-63
2022/08/08 03:16:19;;;;;;;2.03;0.82;;;;;;;20.26;37.53;100977.63;4175197;28;20080;-63
2022/08/08 03:19:02;;;;;;;3.67;1.25;;;;;;;20.25;37.27;100987.28;4152567;28;20091;-63
2022/08/08 03:21:24;;;;;;;2.45;1.00;;;;;;;20.19;37.67;100977.72;4144832;28;20073;-63
2022/08/08 03:23:44;;;;;;;1.42;0.90;;;;;;;20.20;37.83;100981.22;4159867;28;20045;-63
2022/08/08 03:26:03;;;;;;;1.98;0.90;;;;;;;20.19;37.99;100983.00;4159773;28;20077;-63
2022/08/08 03:28:19;;;;;;;2.25;1.17;;;;;;;20.23;37.31;100986.47;4194849;28;20060;-63
2022/08/08 03:30:25;;;;;;;3.38;1.00;;;;;;;20.13;37.49;100984.88;4155593;28;20096;-63
2022/08/08 03:35:04;;;;;;;2.92;1.00;;;;;;;20.07;37.91;100988.47;4179515;28;20438;-63
2022/08/08 03:37:16;;;;;;;3.03;1.00;;;;;;;20.07;38.16;100988.47;4162835;28;20124;-63
2022/08/08 03:39:43;;;;;;;3.00;0.88;;;;;;;20.08;38.20;100989.34;4194949;28;20063;-63
2022/08/08 03:42:05;;;;;;;1.20;0.80;;;;;;;20.04;37.81;100988.53;4161269;28;20067;-63
2022/08/08 03:44:32;;;;;;;3.35;1.10;;;;;;;20.10;37.84;100992.84;4160785;28;20045;-62
2022/08/08 03:46:45;;;;;;;2.95;1.00;;;;;;;20.12;38.03;100997.22;4164290;28;20045;-63
2022/08/08 03:48:56;;;;;;;1.20;0.90;;;;;;;20.14;37.48;100990.13;4193173;28;20037;-64
2022/08/08 03:51:20;;;;;;;4.13;0.90;;;;;;;20.10;37.83;100998.13;4162131;28;20045;-64
2022/08/08 03:53:43;;;;;;;4.22;1.10;;;;;;;19.94;37.90;101001.00;4163900;28;20052;-64
2022/08/08 03:55:51;;;;;;;4.22;1.00;;;;;;;19.91;37.91;100994.91;4162254;28;20041;-64
2022/08/08 03:58:07;;;;;;;4.47;1.15;;;;;;;19.91;38.47;100995.78;4156715;28;20046;-63
2022/08/08 04:00:38;;;;;;;2.70;1.10;;;;;;;19.83;38.64;100995.00;4159353;28;20076;-63
2022/08/08 04:03:05;;;;;;;4.10;1.25;;;;;;;19.79;38.61;100999.47;4193992;28;20045;-62
2022/08/08 04:05:15;;;;;;;2.15;1.00;;;;;;;19.76;38.39;101001.28;4162888;28;20042;-62
2022/08/08 04:07:36;;;;;;;4.25;1.73;;;;;;;19.69;38.84;100990.78;4162224;28;20164;-62
2022/08/08 04:09:39;;;;;;;2.40;1.00;;;;;;;19.74;38.43;100997.78;4160461;28;20152;-63
2022/08/08 04:12:04;;;;;;;2.95;0.90;;;;;;;19.75;38.41;101000.38;4162179;28;20128;-63
2022/08/08 04:14:16;;;;;;;2.65;1.00;;;;;;;19.73;38.62;100996.03;4154339;28;20037;-63
2022/08/08 04:16:39;;;;;;;3.65;1.20;;;;;;;19.77;38.86;101000.34;4162338;28;20514;-63
2022/08/08 04:18:48;;;;;;;3.42;1.20;;;;;;;19.77;39.14;101001.25;4178587;28;20115;-63
2022/08/08 04:20:56;;;;;;;4.15;1.45;;;;;;;19.74;38.92;101006.53;4178213;28;20041;-63
2022/08/08 04:22:59;;;;;;;3.78;1.02;;;;;;;19.76;38.55;100993.38;4160404;28;20418;-67
2022/08/08 04:25:09;;;;;;;2.60;1.00;;;;;;;19.78;39.11;101010.91;4174595;28;20037;-67
2022/08/08 04:27:20;;;;;;;2.78;1.10;;;;;;;19.74;38.82;101006.53;4192595;28;20461;-67
2022/08/08 04:29:43;;;;;;;4.40;1.35;;;;;;;19.65;39.02;101015.47;4162810;28;20103;-67
2022/08/08 04:32:07;;;;;;;2.72;1.17;;;;;;;19.62;39.27;101017.28;4162473;28;20582;-67
2022/08/08 04:34:13;;;;;;;7.63;1.08;;;;;;;19.61;38.98;101015.53;4161803;28;20037;-67
2022/08/08 04:36:20;;;;;;;9.93;1.63;;;;;;;19.64;39.18;101020.78;4162783;28;20124;-67
2022/08/08 04:38:23;;;;;;;4.85;1.20;;;;;;;19.57;38.90;101019.16;4162660;28;20045;-67
2022/08/08 04:40:29;;;;;;;8.05;1.35;;;;;;;19.52;38.92;101027.97;4156413;28;20046;-67
2022/08/08 04:42:34;;;;;;;8.68;1.33;;;;;;;19.53;39.14;101019.16;4161772;28;20037;-67
2022/08/08 04:44:39;;;;;;;5.90;1.30;;;;;;;19.56;39.18;101027.94;4162407;28;20046;-68
2022/08/08 04:46:42;;;;;;;9.27;1.70;;;;;;;19.54;39.52;101031.47;4161771;28;20048;-67
2022/08/08 04:48:45;;;;;;;6.97;1.35;;;;;;;19.50;39.38;101035.03;4162534;28;20041;-67
2022/08/08 04:50:50;;;;;;;3.40;1.02;;;;;;;19.49;39.38;101042.97;4163776;28;20042;-67
2022/08/08 04:52:58;;;;;;;4.18;1.40;;;;;;;19.48;39.40;101041.25;4162277;28;20045;-66
2022/08/08 04:55:08;;;;;;;7.60;1.80;;;;;;;19.51;40.14;101043.84;4176117;28;20033;-67
2022/08/08 04:57:12;;;;;;;8.63;2.03;;;;;;;19.59;39.84;101051.63;4164106;28;20042;-67
2022/08/08 04:59:17;;;;;;;4.97;1.30;;;;;;;19.58;39.89;101055.16;4166039;28;20120;-66
2022/08/08 05:01:32;;;;;;;8.68;2.00;;;;;;;19.59;39.89;101051.63;4165631;28;20124;-67
2022/08/08 05:03:51;;;;;;;8.40;1.60;;;;;;;19.59;39.82;101054.25;4165625;28;20069;-67
2022/08/08 05:06:17;;;;;;;8.48;1.80;;;;;;;19.58;40.13;101056.03;4164578;28;20069;-67
2022/08/08 05:08:27;;;;;;;3.40;1.48;;;;;;;19.61;40.08;101060.38;4198488;28;20045;-66
2022/08/08 05:10:32;;;;;;;5.35;1.50;;;;;;;19.68;40.01;101064.69;4165711;28;20087;-66
2022/08/08 05:12:36;;;;;;;8.30;1.45;;;;;;;19.74;39.54;101054.03;4181630;28;20087;-67
2022/08/08 05:15:00;;;;;;;4.85;1.80;;;;;;;19.80;39.58;101059.28;4198528;28;20406;-66
2022/08/08 05:17:07;;;;;;;7.30;1.50;;;;;;;19.79;39.63;101056.66;4165444;28;20568;-67
2022/08/08 05:19:13;;;;;;;5.68;1.40;;;;;;;19.81;39.06;101055.72;4165432;28;20531;-67
2022/08/08 05:21:36;;;;;;;5.45;1.40;;;;;;;19.83;39.80;101061.88;4176649;28;20041;-66
2022/08/08 05:23:59;;;;;;;3.72;1.20;;;;;;;19.95;40.18;101062.59;4165180;28;20048;-66
2022/08/08 05:26:13;;;;;;;4.63;1.42;;;;;;;20.09;38.47;101070.28;4181842;28;20041;-67
2022/08/08 05:28:16;;;;;;;5.25;1.33;;;;;;;20.04;38.54;101070.34;4165261;28;20599;-67
2022/08/08 05:30:40;;;;;;;3.50;1.67;;;;;;;19.96;38.12;101062.56;4164125;28;20092;-67
2022/08/08 05:32:50;;;;;;;9.15;1.40;;;;;;;20.04;37.71;101076.50;4164855;28;20050;-67
2022/08/08 05:34:59;;;;;;;9.43;2.13;;;;;;;20.02;37.60;101074.81;4163500;28;20533;-67
2022/08/08 05:37:09;;;;;;;4.38;1.15;;;;;;;19.92;38.03;101074.06;4165078;28;20052;-67
2022/08/08 05:39:24;;;;;;;3.70;1.70;;;;;;;19.95;38.33;101078.44;4165228;28;20068;-67
2022/08/08 05:41:34;;;;;;;6.50;1.73;;;;;;;19.95;38.51;101079.28;4148206;28;20080;-67
2022/08/08 05:44:05;;;;;;;6.88;1.80;;;;;;;20.04;38.51;101086.19;4164953;28;20100;-67
2022/08/08 05:46:12;;;;;;;9.48;1.65;;;;;;;20.04;38.35;101087.06;4164874;28;20045;-67
2022/08/08 05:48:16;;;;;;;3.65;1.52;;;;;;;19.95;38.29;101081.94;4148607;28;20071;-66
2022/08/08 05:50:31;;;;;;;;;;;;;;;20.00;38.42;101088.00;4165698;28;20164;-67
2022/08/08 05:52:36;;;;;;;5.03;1.40;;;;;;;20.01;38.16;101091.53;4164709;28;19971;-67
2022/08/08 05:54:40;;;;;;;5.40;1.83;;;;;;;20.10;38.50;101090.50;4164853;28;20045;-66
2022/08/08 05:56:55;;;;;;;10.55;1.77;;;;;;;20.22;38.03;101096.47;4164769;28;20041;-67
2022/08/08 05:59:05;;;;;;;14.88;2.38;;;;;;;20.18;38.45;101104.44;4163579;28;20430;-67
2022/08/08 06:01:17;;;;;;;6.97;1.83;;;;;;;20.14;38.44;101098.34;4164661;28;20041;-67
2022/08/08 06:03:42;;;;;;;7.60;1.80;;;;;;;20.14;38.61;101106.28;4164793;28;20041;-67
2022/08/08 06:05:56;;;;;;;;;;;;;;;20.01;38.37;101100.31;4164475;28;20036;-67
2022/08/08 06:08:01;;;;;;;6.53;1.90;;;;;;;20.12;37.77;101104.53;4197206;28;20329;-67
2022/08/08 06:10:29;;;;;;;5.53;1.38;;;;;;;20.15;37.36;101112.41;4151588;28;20033;-68
2022/08/08 06:12:35;;;;;;;7.40;1.50;;;;;;;20.14;37.81;101108.91;4180706;28;20044;-67
2022/08/08 06:14:40;;;;;;;10.05;2.08;;;;;;;20.17;37.82;101111.50;4164516;28;20095;-66
2022/08/08 06:16:56;;;;;;;9.10;1.90;;;;;;;20.25;38.24;101115.81;4164585;28;20041;-67
2022/08/08 06:19:11;;;;;;;8.55;1.85;;;;;;;20.34;38.50;101118.28;4164534;28;20041;-67
2022/08/08 06:21:20;;;;;;;6.45;1.48;;;;;;;20.42;38.26;101121.69;4164449;28;20141;-67
2022/08/08 06:23:43;;;;;;;7.68;2.55;;;;;;;20.50;38.56;101118.91;4164369;28;20041;-67
2022/08/08 06:26:07;;;;;;;10.77;2.60;;;;;;;20.60;37.91;101119.63;4179946;28;20546;-67
2022/08/08 06:28:31;;;;;;;;;;;;;;;20.54;37.36;101123.25;4158502;28;20538;-66
2022/08/08 06:30:36;;;;;;;4.22;1.52;;;;;;;20.60;37.84;101127.56;4164190;28;19921;-67
2022/08/08 06:32:45;;;;;;;7.63;2.15;;;;;;;20.75;37.59;101124.72;4164026;28;20045;-67
2022/08/08 06:34:55;;;;;;;5.53;1.80;;;;;;;20.71;37.56;101123.88;4180683;28;20051;-66
2022/08/08 06:37:28;;;;;;;15.20;2.55;;;;;;;20.89;36.99;101127.94;4164215;28;20091;-66
2022/08/08 06:39:44;;;;;;;7.53;2.25;;;;;;;20.97;35.90;101121.66;4163369;28;20061;-66
2022/08/08 06:42:01;;;;;;;6.25;1.95;;;;;;;20.99;35.70;101119.88;4163746;28;20079;-67
2022/08/08 06:44:17;;;;;;;12.85;2.20;;;;;;;20.96;36.18;101131.38;4164076;28;20073;-67
2022/08/08 06:46:30;;;;;;;6.95;2.13;;;;;;;20.88;36.52;101130.63;4162632;28;20029;-67
2022/08/08 06:48:36;;;;;;;7.47;1.83;;;;;;;20.90;37.00;101136.78;4147478;28;20137;-67
2022/08/08 06:50:41;;;;;;;15.68;2.72;;;;;;;21.02;36.81;101131.25;4180356;28;20128;-67
2022/08/08 06:52:48;;;;;;;8.57;1.65;;;;;;;21.14;36.64;101131.94;4163628;28;20050;-67
2022/08/08 06:54:54;;;;;;;6.00;1.63;;;;;;;21.16;37.05;101138.03;4163967;28;20041;-67
2022/08/08 06:56:58;;;;;;;7.60;1.60;;;;;;;21.08;37.13;101138.19;4180335;28;20048;-67
2022/08/08 06:59:03;;;;;;;7.07;1.77;;;;;;;21.23;36.98;101137.94;4146767;28;20049;-67
2022/08/08 07:01:16;;;;;;;9.32;1.80;;;;;;;21.43;36.16;101140.16;4180212;28;20051;-67
2022/08/08 07:03:52;;;;;;;9.05;1.38;;;;;;;21.32;36.30;101143.91;4163966;28;20044;-67
2022/08/08 07:06:19;;;;;;;10.18;2.10;;;;;;;21.45;35.63;101148.94;4162790;28;20041;-67
2022/08/08 07:08:29;;;;;;;5.65;1.60;;;;;;;21.43;35.75;101150.72;4172750;28;20043;-67
2022/08/08 07:10:35;;;;;;;3.58;1.10;;;;;;;21.39;36.16;101148.19;4163671;28;20128;-67
2022/08/08 07:12:41;;;;;;;6.07;1.45;;;;;;;21.33;36.34;101154.47;4195407;28;20037;-67
2022/08/08 07:14:58;;;;;;;6.85;1.60;;;;;;;21.44;36.14;101151.63;4163433;28;20128;-67
2022/08/08 07:17:05;;;;;;;8.43;1.75;;;;;;;21.69;35.65;101151.16;4163620;28;20038;-67
2022/08/08 07:19:28;;;;;;;5.63;1.65;;;;;;;21.71;35.06;101144.94;4162958;28;20037;-67
2022/08/08 07:21:40;;;;;;;14.00;2.22;;;;;;;21.70;35.44;101152.88;4163902;28;20614;-67
2022/08/08 07:23:54;;;;;;;13.10;1.83;;;;;;;21.70;36.11;101156.41;4163353;28;20039;-67
2022/08/08 07:26:10;;;;;;;15.00;2.10;;;;;;;21.89;35.34;101151.59;4178965;28;20040;-67
2022/08/08 07:28:15;;;;;;;6.15;1.55;;;;;;;21.90;35.53;101147.16;4179788;28;20124;-67
2022/08/08 07:30:23;;;;;;;5.47;1.63;;;;;;;21.93;35.39;101150.63;4179929;28;20037;-67
2022/08/08 07:32:31;;;;;;;9.40;1.52;;;;;;;22.00;35.49;101148.69;4163088;28;20053;-67
2022/08/08 07:34:36;;;;;;;;;;;;;;;22.08;34.80;101145.91;4180101;28;20037;-67
2022/08/08 07:37:02;;;;;;;11.57;1.73;;;;;;;22.13;35.18;101149.31;4157566;28;19921;-67
2022/08/08 07:39:19;;;;;;;9.63;2.35;;;;;;;22.32;34.74;101141.84;4158022;28;20072;-67
2022/08/08 07:41:32;;;;;;;11.65;2.97;;;;;;;22.34;34.86;101147.09;4179619;28;20045;-67
2022/08/08 07:43:57;;;;;;;5.05;1.75;;;;;;;22.28;34.55;101151.63;4179728;28;20037;-66
2022/08/08 07:46:01;;;;;;;6.32;1.67;;;;;;;22.30;34.62;101144.50;4163152;28;20474;-67
2022/08/08 07:48:24;;;;;;;5.68;1.50;;;;;;;22.51;33.71;101155.50;4161589;28;20038;-67
2022/08/08 07:50:33;;;;;;;5.07;1.50;;;;;;;22.46;33.82;101160.06;4160006;28;20087;-67
2022/08/08 07:52:38;;;;;;;5.28;1.63;;;;;;;22.41;33.86;101151.34;4190506;28;20037;-67
2022/08/08 07:54:54;;;;;;;8.13;1.67;;;;;;;22.40;33.98;101160.19;4163055;28;20042;-67
2022/08/08 07:57:08;;;;;;;7.00;1.88;;;;;;;22.61;33.70;101162.31;4179516;28;20046;-67
2022/08/08 07:59:16;;;;;;;3.65;1.40;;;;;;;22.62;33.41;101158.78;4163169;28;20128;-67
2022/08/08 08:01:27;;;;;;;4.00;1.48;;;;;;;22.58;33.75;101159.75;4179478;28;20047;-67
2022/08/08 08:03:54;;;;;;;5.50;1.20;;;;;;;22.67;33.79;101161.31;4144991;28;20057;-67
2022/08/08 08:06:05;;;;;;;3.13;1.17;;;;;;;22.73;33.83;101166.44;4162389;28;20475;-66
2022/08/08 08:08:17;;;;;;;7.20;1.60;;;;;;;22.92;32.95;101169.50;4162621;28;20033;-67
2022/08/08 08:10:27;;;;;;;3.78;1.25;;;;;;;22.88;33.31;101173.16;4146723;28;20038;-66
2022/08/08 08:12:38;;;;;;;2.97;1.15;;;;;;;22.97;33.43;101172.06;4130005;28;20046;-66
2022/08/08 08:14:54;;;;;;;5.80;1.38;;;;;;;23.27;32.90;101175.69;4146496;28;20045;-67
2022/08/08 08:16:58;;;;;;;4.07;1.70;;;;;;;23.38;32.18;101162.13;4172775;28;20044;-67
2022/08/08 08:19:04;;;;;;;5.25;1.60;;;;;;;23.33;32.46;101172.88;4162700;28;20180;-67
2022/08/08 08:21:16;;;;;;;2.60;1.20;;;;;;;23.27;32.80;101170.38;4162913;28;20049;-67
2022/08/08 08:23:21;;;;;;;3.72;1.48;;;;;;;23.30;33.04;101180.91;4162509;28;20041;-67
2022/08/08 08:25:29;;;;;;;5.43;1.30;;;;;;;23.31;32.89;101174.69;4179428;28;20534;-67
2022/08/08 08:27:49;;;;;;;2.00;1.08;;;;;;;23.37;32.74;101171.00;4179293;28;20128;-66
2022/08/08 08:29:54;;;;;;;2.20;1.00;;;;;;;23.49;32.94;101172.44;4161853;28;20045;-67
2022/08/08 08:32:00;;;;;;;3.28;1.08;;;;;;;23.55;33.04;101161.63;4148898;28;20042;-67
2022/08/08 08:34:08;;;;;;;3.22;1.27;;;;;;;23.65;33.03;101168.41;4182474;28;20115;-67
2022/08/08 08:36:15;;;;;;;4.00;1.35;;;;;;;23.82;32.30;101161.75;4166045;28;20490;-67
2022/08/08 08:38:22;;;;;;;3.05;1.20;;;;;;;23.93;32.47;101164.13;4149879;28;20081;-67
2022/08/08 08:40:33;;;;;;;8.25;1.75;;;;;;;24.20;31.30;101157.09;4166040;28;20201;-68
2022/08/08 08:42:38;;;;;;;3.88;1.48;;;;;;;24.16;31.42;101166.94;4164843;28;20037;-67
2022/08/08 08:44:49;;;;;;;3.05;1.23;;;;;;;24.13;31.32;101160.84;4198884;28;20049;-67
2022/08/08 08:46:53;;;;;;;5.13;1.30;;;;;;;24.09;31.73;101162.72;4165919;28;20539;-67
2022/08/08 08:49:01;;;;;;;7.18;1.20;;;;;;;24.20;31.41;101168.56;4164861;28;20065;-67
2022/08/08 08:51:09;;;;;;;;;;;;;;;24.25;31.77;101164.91;4182660;28;20049;-67
2022/08/08 08:53:17;;;;;;;4.60;1.20;;;;;;;24.25;32.11;101164.91;4150353;28;20441;-66
2022/08/08 08:55:46;;;;;;;3.13;1.48;;;;;;;24.48;31.21;101165.03;4169356;28;20041;-67
2022/08/08 08:57:53;;;;;;;2.25;1.10;;;;;;;24.40;31.67;101159.97;4181484;28;20030;-66
2022/08/08 08:59:59;;;;;;;5.78;1.65;;;;;;;24.62;30.69;101158.41;4160193;28;20108;-67
2022/08/08 09:02:20;;;;;;;5.95;1.20;;;;;;;24.56;31.21;101155.03;4163534;28;20065;-66
2022/08/08 09:04:27;;;;;;;2.65;1.63;;;;;;;24.62;31.13;101161.97;4165037;28;20048;-66
2022/08/08 09:06:40;;;;;;;4.75;1.70;;;;;;;24.82;30.46;101160.41;4165620;28;20049;-66
2022/08/08 09:09:03;;;;;;;4.22;1.52;;;;;;;24.90;30.61;101163.69;4165682;28;20096;-66
2022/08/08 09:11:07;;;;;;;2.50;1.10;;;;;;;24.72;30.93;101165.16;4165629;28;20052;-66
2022/08/08 09:13:11;;;;;;;;;;;;;;;24.64;31.32;101159.25;4166858;28;20071;-66
2022/08/08 09:15:18;;;;;;;6.70;1.50;;;;;;;24.79;31.06;101161.38;4164724;28;19968;-66
2022/08/08 09:17:42;;;;;;;5.38;1.60;;;;;;;24.97;30.83;101157.25;4165392;28;20565;-66
2022/08/08 09:20:00;;;;;;;4.93;1.45;;;;;;;25.08;30.49;101159.50;4182028;28;20040;-66
2022/08/08 09:22:23;;;;;;;2.17;1.10;;;;;;;25.13;30.48;101154.03;4164308;28;20715;-66
2022/08/08 09:24:32;;;;;;;5.32;1.20;;;;;;;25.20;30.52;101155.53;4165095;28;20148;-66
2022/08/08 09:26:43;;;;;;;2.70;1.50;;;;;;;25.41;30.36;101153.94;4165427;28;20048;-66
2022/08/08 09:29:00;;;;;;;3.03;1.60;;;;;;;25.55;29.67;101156.06;4165292;28;20147;-66
2022/08/08 09:31:14;;;;;;;4.97;1.92;;;;;;;25.52;30.45;101158.84;4165365;28;20503;-66
2022/08/08 09:33:25;;;;;;;7.90;1.73;;;;;;;25.59;29.98;101155.03;4181445;28;20587;-66
2022/08/08 09:35:50;;;;;;;5.95;1.45;;;;;;;25.52;30.30;101150.88;4163756;28;20037;-66
2022/08/08 09:38:01;;;;;;;4.72;1.35;;;;;;;25.55;30.50;101156.06;4165236;28;20066;-66
2022/08/08 09:40:12;;;;;;;5.07;1.40;;;;;;;25.68;30.14;101143.19;4181709;28;20041;-66
2022/08/08 09:42:21;;;;;;;1.40;1.10;;;;;;;25.68;30.25;101144.03;4165481;28;20042;-66
2022/08/08 09:44:36;;;;;;;2.80;1.38;;;;;;;25.85;30.08;101142.53;4166270;28;20136;-66
2022/08/08 09:46:46;;;;;;;3.65;1.23;;;;;;;26.02;29.52;101141.88;4164958;28;20049;-66
2022/08/08 09:49:11;;;;;;;3.50;1.45;;;;;;;26.01;29.73;101138.38;4165113;28;20045;-66
2022/08/08 09:51:39;;;;;;;6.20;1.65;;;;;;;26.21;29.69;101142.03;4160476;28;20056;-66
2022/08/08 09:54:03;;;;;;;2.55;1.70;;;;;;;26.34;29.43;101135.25;4164871;28;20053;-67
2022/08/08 09:56:18;;;;;;;3.85;1.35;;;;;;;26.26;29.40;101132.06;4148454;28;20492;-66
2022/08/08 09:58:34;;;;;;;4.80;1.55;;;;;;;26.20;29.63;101137.66;4164828;28;20037;-66
2022/08/08 10:00:48;;;;;;;3.08;1.10;;;;;;;26.30;29.46;101136.34;4166031;28;20045;-66
2022/08/08 10:03:03;;;;;;;5.47;1.45;;;;;;;26.45;29.68;101135.69;4164789;28;20037;-66
2022/08/08 10:05:10;;;;;;;9.02;1.77;;;;;;;26.54;29.43;101125.56;4165773;28;20124;-66
2022/08/08 10:07:17;;;;;;;10.27;1.83;;;;;;;26.70;28.93;101131.16;4165995;28;20047;-66
2022/08/08 10:09:29;;;;;;;5.55;1.67;;;;;;;26.81;28.67;101135.09;4165747;28;20400;-67
2022/08/08 10:11:40;;;;;;;3.85;1.48;;;;;;;26.77;28.41;101130.81;4164694;28;20479;-66
2022/08/08 10:14:06;;;;;;;7.57;1.55;;;;;;;26.79;28.85;101126.28;4147947;28;20112;-66
2022/08/08 10:16:37;;;;;;;4.63;1.77;;;;;;;26.70;29.17;101126.69;4165782;28;20048;-66
2022/08/08 10:18:40;;;;;;;3.58;1.42;;;;;;;26.75;29.03;101127.38;4164563;28;20037;-66
2022/08/08 10:20:48;;;;;;;6.72;1.75;;;;;;;26.93;28.93;101124.84;4165764;28;20046;-66
2022/08/08 10:23:03;;;;;;;3.17;1.30;;;;;;;27.15;28.89;101122.94;4163611;28;20483;-66
2022/08/08 10:25:07;;;;;;;2.72;0.93;;;;;;;26.90;29.24;101123.16;4163611;28;20038;-66
2022/08/08 10:27:23;;;;;;;10.60;1.58;;;;;;;27.10;29.17;101124.97;4157705;28;20388;-67
2022/08/08 10:29:39;;;;;;;3.30;1.30;;;;;;;27.13;28.45;101121.28;4164309;28;20060;-66
2022/08/08 10:34:29;;;;;;;6.18;1.58;;;;;;;27.14;29.21;101115.00;4165482;28;20555;-67
2022/08/08 10:36:34;;;;;;;6.38;2.13;;;;;;;27.37;28.98;101113.16;4164812;28;20509;-66
2022/08/08 10:38:39;;;;;;;2.65;1.40;;;;;;;27.38;28.36;101107.72;4165288;28;20083;-67
2022/08/08 10:40:44;;;;;;;3.65;1.27;;;;;;;27.32;27.75;101114.19;4165273;28;20037;-66
2022/08/08 10:42:53;;;;;;;7.07;1.45;;;;;;;27.43;28.45;101111.03;4164948;28;20037;-68
2022/08/08 10:45:02;;;;;;;2.05;0.90;;;;;;;27.42;27.98;101103.09;4164382;28;20065;-66
2022/08/08 10:47:12;;;;;;;2.55;1.30;;;;;;;27.59;28.13;101102.31;4164577;28;20129;-66
2022/08/08 10:49:22;;;;;;;2.38;1.30;;;;;;;27.69;27.34;101096.47;4148872;28;20480;-66
2022/08/08 10:51:45;;;;;;;2.40;1.00;;;;;;;27.62;27.64;101102.19;4159786;28;20045;-66